createdAt,value
2023-01-30T00:02:36.679Z,15.43
2023-01-30T00:05:05.262Z,15.43
2023-01-30T00:07:32.766Z,16.12
2023-01-30T00:10:00.452Z,15.08
2023-01-30T00:12:28.482Z,17.67
2023-01-30T00:14:56.080Z,16.55
2023-01-30T00:17:23.597Z,16.02
2023-01-30T00:19:58.448Z,16.37
2023-01-30T00:22:26.315Z,15.23
2023-01-30T00:24:55.355Z,15.53
2023-01-30T00:27:22.970Z,15.48
2023-01-30T00:30:02.210Z,15.95
2023-01-30T00:32:19.645Z,17.17
2023-01-30T00:35:03.941Z,17.65
2023-01-30T00:37:35.753Z,15.98
2023-01-30T00:40:03.745Z,17.85
2023-01-30T00:43:00.089Z,16.57
2023-01-30T00:45:46.522Z,16.27
2023-01-30T00:48:14.546Z,16.25
2023-01-30T00:50:58.868Z,16.60
2023-01-30T00:56:14.028Z,15.83
2023-01-30T00:58:43.400Z,16.77
2023-01-30T01:01:12.073Z,16.95
2023-01-30T01:03:40.109Z,18.05
2023-01-30T01:06:07.559Z,17.62
2023-01-30T01:08:35.209Z,17.27
2023-01-30T01:11:03.926Z,17.40
2023-01-30T01:13:32.063Z,20.72
2023-01-30T01:15:59.571Z,18.12
2023-01-30T01:18:27.202Z,16.35
2023-01-30T01:20:55.017Z,16.00
2023-01-30T01:23:22.601Z,15.15
2023-01-30T01:25:52.006Z,16.20
2023-01-30T01:28:22.252Z,16.30
2023-01-30T01:30:52.375Z,16.67
2023-01-30T01:33:59.723Z,15.35
2023-01-30T01:36:51.543Z,15.48
2023-01-30T01:38:55.666Z,15.28
2023-01-30T01:41:23.869Z,14.23
2023-01-30T01:44:10.013Z,14.75
2023-01-30T01:46:44.807Z,15.58
2023-01-30T01:49:34.496Z,17.80
2023-01-30T01:52:11.749Z,16.42
2023-01-30T01:54:49.429Z,18.30
2023-01-30T01:57:20.980Z,18.07
2023-01-30T02:00:14.564Z,17.75
2023-01-30T02:02:49.400Z,16.02
2023-01-30T02:05:20.914Z,15.25
2023-01-30T02:07:58.446Z,16.10
2023-01-30T02:10:33.526Z,17.05
2023-01-30T02:13:01.876Z,15.93
2023-01-30T02:15:30.837Z,16.60
2023-01-30T02:17:58.721Z,17.80
2023-01-30T02:20:32.801Z,18.05
2023-01-30T02:23:30.298Z,17.50
2023-01-30T02:26:10.812Z,15.85
2023-01-30T02:29:07.396Z,16.65
2023-01-30T02:31:51.088Z,16.57
2023-01-30T02:34:42.229Z,15.48
2023-01-30T02:37:18.220Z,16.45
2023-01-30T02:40:17.393Z,16.00
2023-01-30T02:42:54.691Z,16.55
2023-01-30T02:45:43.558Z,16.37
2023-01-30T02:48:16.802Z,16.25
2023-01-30T02:50:49.223Z,16.30
2023-01-30T02:53:17.133Z,16.00
2023-01-30T02:55:45.340Z,17.27
2023-01-30T02:58:13.938Z,16.52
2023-01-30T03:01:02.643Z,16.23
2023-01-30T03:03:43.729Z,15.50
2023-01-30T03:06:24.908Z,14.45
2023-01-30T03:08:59.697Z,13.28
2023-01-30T03:11:31.191Z,13.35
2023-01-30T03:14:06.788Z,14.13
2023-01-30T03:16:42.129Z,14.03
2023-01-30T03:21:54.830Z,14.68
2023-01-30T03:24:22.848Z,14.63
2023-01-30T03:26:57.551Z,14.68
2023-01-30T03:29:25.399Z,14.65
2023-01-30T03:31:53.382Z,15.15
2023-01-30T03:34:21.893Z,16.37
2023-01-30T03:37:10.020Z,16.30
2023-01-30T03:39:44.465Z,13.93
2023-01-30T03:42:11.918Z,13.93
2023-01-30T03:44:39.953Z,13.50
2023-01-30T03:47:15.768Z,14.00
2023-01-30T03:49:43.383Z,13.93
2023-01-30T03:52:29.344Z,15.50
2023-01-30T03:54:57.568Z,15.15
2023-01-30T03:57:26.117Z,15.25
2023-01-30T03:59:54.359Z,15.28
2023-01-30T04:02:23.743Z,14.65
2023-01-30T04:04:52.470Z,16.90
2023-01-30T04:07:21.139Z,15.78
2023-01-30T04:09:49.975Z,15.85
2023-01-30T04:12:18.052Z,15.25
2023-01-30T04:14:50.244Z,14.25
2023-01-30T04:17:38.494Z,15.43
2023-01-30T04:20:26.655Z,17.02
2023-01-30T04:22:56.467Z,17.07
2023-01-30T04:25:25.665Z,15.83
2023-01-30T04:27:54.211Z,16.20
2023-01-30T04:30:24.063Z,14.55
2023-01-30T04:32:53.776Z,15.80
2023-01-30T04:35:21.910Z,16.27
2023-01-30T04:37:51.949Z,16.10
2023-01-30T04:40:20.359Z,14.90
2023-01-30T04:42:49.195Z,17.50
2023-01-30T04:45:30.495Z,16.02
2023-01-30T04:47:58.161Z,16.97
2023-01-30T04:50:29.197Z,16.85
2023-01-30T04:52:56.659Z,16.42
2023-01-30T04:55:24.683Z,15.93
2023-01-30T04:57:52.394Z,15.83
2023-01-30T05:00:20.019Z,17.67
2023-01-30T05:02:50.786Z,16.12
2023-01-30T05:05:19.226Z,16.12
2023-01-30T05:07:47.083Z,14.83
2023-01-30T05:10:15.976Z,15.95
2023-01-30T05:12:43.504Z,16.05
2023-01-30T05:15:13.979Z,16.23
2023-01-30T05:17:43.765Z,16.75
2023-01-30T05:20:14.097Z,16.35
2023-01-30T05:22:44.551Z,15.63
2023-01-30T05:25:12.248Z,17.20
2023-01-30T05:27:40.064Z,16.60
2023-01-30T05:30:10.518Z,16.73
2023-01-30T05:32:38.244Z,17.23
2023-01-30T05:35:07.118Z,17.73
2023-01-30T05:37:34.949Z,16.40
2023-01-30T05:40:03.075Z,16.57
2023-01-30T05:42:31.452Z,17.00
2023-01-30T05:44:59.273Z,15.53
2023-01-30T05:47:29.385Z,16.12
2023-01-30T05:49:56.950Z,16.27
2023-01-30T05:52:25.021Z,17.75
2023-01-30T05:54:52.787Z,18.52
2023-01-30T05:57:20.549Z,18.65
2023-01-30T05:59:48.624Z,18.32
2023-01-30T06:02:16.931Z,17.42
2023-01-30T06:04:47.846Z,18.77
2023-01-30T06:07:15.429Z,19.60
2023-01-30T06:09:43.162Z,17.25
2023-01-30T06:12:10.648Z,18.90
2023-01-30T06:14:37.871Z,22.37
2023-01-30T06:17:05.817Z,18.80
2023-01-30T06:19:37.163Z,16.82
2023-01-30T06:22:05.024Z,17.50
2023-01-30T06:24:52.793Z,18.25
2023-01-30T06:27:20.519Z,18.10
2023-01-30T06:29:48.039Z,16.60
2023-01-30T06:32:16.351Z,16.93
2023-01-30T06:34:44.046Z,17.90
2023-01-30T06:37:11.662Z,16.10
2023-01-30T06:39:39.363Z,14.58
2023-01-30T06:42:07.829Z,15.78
2023-01-30T06:44:35.557Z,17.80
2023-01-30T06:47:04.878Z,16.95
2023-01-30T06:49:32.266Z,17.48
2023-01-30T06:52:13.275Z,18.42
2023-01-30T06:54:41.710Z,19.45
2023-01-30T06:57:09.629Z,19.25
2023-01-30T06:59:37.772Z,20.37
2023-01-30T07:02:19.571Z,18.75
2023-01-30T07:04:47.769Z,18.57
2023-01-30T07:07:16.519Z,18.87
2023-01-30T07:09:45.101Z,17.55
2023-01-30T07:12:12.976Z,18.90
2023-01-30T07:14:40.913Z,20.50
2023-01-30T07:17:08.608Z,23.65
2023-01-30T07:19:36.663Z,22.35
2023-01-30T07:22:06.194Z,21.82
2023-01-30T07:24:51.273Z,22.00
2023-01-30T07:27:19.310Z,22.00
2023-01-30T07:29:46.969Z,22.70
2023-01-30T07:32:18.705Z,20.02
2023-01-30T07:34:49.202Z,20.75
2023-01-30T07:37:16.831Z,21.87
2023-01-30T07:39:44.425Z,22.25
2023-01-30T07:42:12.573Z,21.82
2023-01-30T07:44:40.969Z,20.17
2023-01-30T07:47:08.503Z,20.32
2023-01-30T07:49:56.502Z,20.08
2023-01-30T07:52:27.071Z,24.32
2023-01-30T07:54:56.539Z,24.90
2023-01-30T07:57:24.229Z,23.50
2023-01-30T07:59:51.754Z,22.77
2023-01-30T08:02:19.475Z,23.07
2023-01-30T08:04:50.959Z,22.58
2023-01-30T08:07:31.889Z,21.93
2023-01-30T08:10:00.434Z,21.75
2023-01-30T08:12:28.042Z,21.90
2023-01-30T08:14:55.843Z,21.37
2023-01-30T08:17:23.399Z,21.10
2023-01-30T08:19:51.393Z,21.35
2023-01-30T08:22:20.420Z,21.07
2023-01-30T08:24:48.336Z,21.85
2023-01-30T08:27:15.874Z,23.07
2023-01-30T08:29:45.434Z,22.62
2023-01-30T08:32:14.759Z,23.15
2023-01-30T08:34:57.387Z,21.57
2023-01-30T08:37:25.364Z,21.65
2023-01-30T08:39:53.350Z,21.80
2023-01-30T08:42:23.552Z,22.67
2023-01-30T08:44:51.649Z,20.95
2023-01-30T08:47:19.387Z,21.30
2023-01-30T08:49:47.477Z,21.50
2023-01-30T08:52:15.827Z,22.17
2023-01-30T08:54:43.709Z,23.00
2023-01-30T08:57:11.239Z,21.80
2023-01-30T08:59:40.065Z,22.02
2023-01-30T09:02:14.539Z,23.20
2023-01-30T09:07:10.975Z,25.25
2023-01-30T09:09:42.163Z,25.48
2023-01-30T09:12:29.983Z,21.25
2023-01-30T09:14:59.197Z,20.25
2023-01-30T09:17:26.945Z,19.95
2023-01-30T09:19:55.841Z,20.20
2023-01-30T09:22:37.903Z,17.95
2023-01-30T09:25:06.699Z,20.20
2023-01-30T09:27:34.618Z,19.32
2023-01-30T09:30:02.311Z,20.17
2023-01-30T09:32:30.338Z,17.55
2023-01-30T09:35:12.958Z,16.87
2023-01-30T09:37:49.423Z,18.27
2023-01-30T09:40:21.028Z,16.32
2023-01-30T09:43:02.350Z,17.27
2023-01-30T09:45:36.696Z,17.30
2023-01-30T09:48:28.403Z,19.12
2023-01-30T09:51:22.104Z,19.25
2023-01-30T09:54:18.367Z,18.98
2023-01-30T09:56:46.265Z,20.48
2023-01-30T09:59:19.054Z,20.08
2023-01-30T10:02:10.369Z,20.32
2023-01-30T10:04:51.708Z,19.85
2023-01-30T10:07:25.489Z,20.05
2023-01-30T10:10:24.453Z,20.12
2023-01-30T10:13:32.979Z,20.20
2023-01-30T10:19:35.995Z,21.07
2023-01-30T10:22:18.903Z,22.25
2023-01-30T10:25:31.823Z,21.80
2023-01-30T10:28:06.481Z,23.27
2023-01-30T10:30:35.310Z,24.65
2023-01-30T10:33:09.637Z,23.83
2023-01-30T10:35:41.470Z,22.35
2023-01-30T10:38:28.121Z,24.12
2023-01-30T10:41:22.616Z,23.47
2023-01-30T10:44:15.297Z,21.68
2023-01-30T10:47:06.216Z,22.22
2023-01-30T10:49:44.345Z,20.45
2023-01-30T10:52:36.425Z,21.42
2023-01-30T10:55:36.394Z,21.52
2023-01-30T10:58:15.231Z,19.75
2023-01-30T11:01:04.656Z,21.12
2023-01-30T11:03:44.558Z,21.15
2023-01-30T11:06:17.104Z,22.73
2023-01-30T11:09:01.420Z,20.30
2023-01-30T11:11:51.998Z,20.80
2023-01-30T11:14:20.224Z,21.23
2023-01-30T11:16:55.752Z,22.00
2023-01-30T11:19:33.337Z,21.20
2023-01-30T11:22:14.586Z,21.48
2023-01-30T11:24:45.680Z,22.90
2023-01-30T11:27:27.912Z,23.20
2023-01-30T11:30:08.848Z,23.38
2023-01-30T11:32:37.339Z,25.15
2023-01-30T11:35:11.895Z,25.60
2023-01-30T11:37:42.469Z,25.62
2023-01-30T11:40:26.688Z,25.68
2023-01-30T11:43:06.629Z,28.55
2023-01-30T11:45:38.430Z,28.95
2023-01-30T11:48:12.494Z,29.87
2023-01-30T11:50:49.457Z,30.88
2023-01-30T11:53:21.904Z,32.80
2023-01-30T11:56:02.999Z,32.33
2023-01-30T11:58:25.146Z,33.13
2023-01-30T12:00:53.080Z,31.70
2023-01-30T12:03:28.074Z,33.83
2023-01-30T12:05:57.418Z,33.73
2023-01-30T12:08:41.765Z,31.68
2023-01-30T12:11:31.609Z,32.58
2023-01-30T12:14:25.546Z,34.98
2023-01-30T12:17:16.009Z,32.53
2023-01-30T12:19:49.093Z,32.85
2023-01-30T12:22:23.901Z,33.88
2023-01-30T12:25:00.000Z,34.30
2023-01-30T12:27:34.584Z,33.98
2023-01-30T12:30:21.464Z,34.70
2023-01-30T12:32:55.638Z,34.63
2023-01-30T12:35:27.528Z,34.83
2023-01-30T12:38:17.572Z,33.53
2023-01-30T12:41:07.566Z,35.90
2023-01-30T12:43:51.249Z,35.15
2023-01-30T12:46:44.732Z,35.43
2023-01-30T12:49:25.439Z,34.50
2023-01-30T12:52:25.682Z,35.95
2023-01-30T12:55:21.677Z,37.05
2023-01-30T12:58:09.104Z,36.55
2023-01-30T13:00:52.715Z,36.85
2023-01-30T13:03:30.569Z,37.83
2023-01-30T13:06:05.336Z,36.42
2023-01-30T13:09:03.046Z,36.83
2023-01-30T13:11:43.515Z,35.73
2023-01-30T13:14:34.740Z,36.08
2023-01-30T13:17:14.871Z,37.73
2023-01-30T13:19:49.332Z,36.88
2023-01-30T13:22:20.733Z,35.20
2023-01-30T13:24:52.889Z,38.08
2023-01-30T13:27:26.087Z,36.95
2023-01-30T13:29:55.557Z,35.88
2023-01-30T13:32:42.630Z,36.00
2023-01-30T13:35:32.370Z,35.88
2023-01-30T13:38:03.359Z,37.20
2023-01-30T13:40:42.147Z,36.58
2023-01-30T13:43:19.645Z,34.73
2023-01-30T13:45:52.552Z,36.23
2023-01-30T13:48:42.758Z,37.45
2023-01-30T13:51:30.710Z,35.25
2023-01-30T13:54:20.176Z,36.00
2023-01-30T13:57:16.127Z,36.50
2023-01-30T14:00:07.741Z,37.33
2023-01-30T14:02:37.388Z,36.08
2023-01-30T14:05:43.312Z,34.67
2023-01-30T14:08:01.874Z,36.45
2023-01-30T14:10:33.496Z,35.63
2023-01-30T14:13:06.346Z,36.42
2023-01-30T14:15:35.634Z,34.58
2023-01-30T14:18:07.820Z,36.55
2023-01-30T14:20:39.474Z,36.10
2023-01-30T14:23:29.766Z,36.23
2023-01-30T14:25:59.364Z,35.60
2023-01-30T14:28:33.761Z,35.33
2023-01-30T14:31:11.186Z,34.78
2023-01-30T14:33:50.310Z,35.35
2023-01-30T14:36:30.610Z,32.67
2023-01-30T14:39:37.484Z,34.58
2023-01-30T14:42:25.295Z,34.90
2023-01-30T14:45:01.615Z,33.53
2023-01-30T14:47:35.265Z,34.70
2023-01-30T14:50:01.493Z,32.88
2023-01-30T14:52:36.253Z,31.62
2023-01-30T14:55:08.829Z,31.73
2023-01-30T14:57:40.783Z,34.15
2023-01-30T15:00:25.083Z,34.75
2023-01-30T15:03:05.816Z,33.43
2023-01-30T15:05:40.135Z,35.10
2023-01-30T15:08:17.878Z,35.00
2023-01-30T15:11:15.184Z,35.03
2023-01-30T15:13:54.122Z,36.25
2023-01-30T15:22:36.391Z,33.15
2023-01-30T15:25:20.267Z,33.40
2023-01-30T15:30:56.271Z,34.45
2023-01-30T15:33:42.149Z,35.78
2023-01-30T15:36:37.434Z,35.25
2023-01-30T15:41:42.979Z,34.88
2023-01-30T15:44:16.659Z,35.65
2023-01-30T15:47:05.788Z,34.55
2023-01-30T15:49:41.389Z,36.03
2023-01-30T15:52:19.818Z,37.98
2023-01-30T15:54:56.414Z,38.80
2023-01-30T15:57:31.967Z,37.10
2023-01-30T16:00:04.346Z,38.83
2023-01-30T16:02:38.100Z,38.00
2023-01-30T16:05:18.483Z,40.10
2023-01-30T16:07:49.395Z,39.05
2023-01-30T16:10:24.087Z,40.03
2023-01-30T16:12:56.427Z,41.58
2023-01-30T16:15:36.820Z,42.10
2023-01-30T16:18:26.341Z,40.58
2023-01-30T16:24:00.951Z,40.43
2023-01-30T16:26:34.206Z,40.20
2023-01-30T16:29:05.260Z,40.88
2023-01-30T16:34:36.030Z,40.78
2023-01-30T16:37:25.951Z,43.30
2023-01-30T16:40:15.316Z,41.90
2023-01-30T16:42:58.492Z,41.88
2023-01-30T16:45:41.455Z,42.20
2023-01-30T16:48:33.434Z,40.88
2023-01-30T16:51:15.857Z,40.52
2023-01-30T16:54:06.086Z,42.13
2023-01-30T16:56:42.576Z,41.42
2023-01-30T16:59:15.399Z,41.95
2023-01-30T17:01:47.079Z,42.15
2023-01-30T17:04:19.201Z,43.28
2023-01-30T17:06:57.821Z,40.17
2023-01-30T17:09:48.636Z,38.38
2023-01-30T17:12:37.809Z,37.63
2023-01-30T17:18:04.887Z,38.90
2023-01-30T17:20:36.928Z,37.90
2023-01-30T17:23:08.729Z,39.03
2023-01-30T17:28:30.505Z,38.80
2023-01-30T17:31:05.861Z,38.42
2023-01-30T17:33:34.347Z,39.95
2023-01-30T17:36:07.041Z,39.30
2023-01-30T17:38:39.096Z,39.00
2023-01-30T17:41:08.975Z,37.83
2023-01-30T17:43:37.445Z,38.30
2023-01-30T17:46:08.641Z,39.05
2023-01-30T17:48:37.254Z,39.15
2023-01-30T17:51:05.680Z,39.63
2023-01-30T17:53:47.713Z,38.65
2023-01-30T17:56:22.385Z,38.95
2023-01-30T17:58:52.842Z,40.17
2023-01-30T18:01:20.810Z,39.27
2023-01-30T18:03:49.840Z,39.53
2023-01-30T18:06:19.054Z,39.13
2023-01-30T18:08:54.354Z,37.90
2023-01-30T18:11:25.519Z,41.65
2023-01-30T18:13:53.520Z,42.40
2023-01-30T18:16:28.927Z,39.92
2023-01-30T18:19:03.166Z,40.43
2023-01-30T18:21:43.963Z,39.78
2023-01-30T18:24:15.284Z,37.70
2023-01-30T18:26:44.571Z,40.00
2023-01-30T18:31:57.489Z,38.13
2023-01-30T18:34:26.003Z,36.00
2023-01-30T18:36:54.016Z,38.13
2023-01-30T18:39:23.113Z,39.33
2023-01-30T18:41:51.624Z,39.65
2023-01-30T18:44:19.850Z,38.92
2023-01-30T18:46:53.206Z,41.33
2023-01-30T18:49:21.168Z,39.50
2023-01-30T18:51:55.583Z,38.73
2023-01-30T18:54:23.503Z,38.00
2023-01-30T18:56:51.095Z,39.13
2023-01-30T18:59:19.403Z,38.35
2023-01-30T19:01:48.677Z,36.70
2023-01-30T19:04:16.351Z,37.45
2023-01-30T19:06:47.725Z,38.23
2023-01-30T19:09:18.299Z,38.30
2023-01-30T19:12:07.804Z,36.75
2023-01-30T19:14:44.751Z,37.73
2023-01-30T19:17:17.363Z,38.83
2023-01-30T19:19:58.171Z,40.50
2023-01-30T19:22:29.669Z,37.95
2023-01-30T19:24:58.484Z,38.35
2023-01-30T19:27:26.715Z,41.00
2023-01-30T19:29:54.494Z,39.03
2023-01-30T19:32:22.961Z,37.70
2023-01-30T19:34:51.163Z,39.03
2023-01-30T19:37:19.869Z,37.98
2023-01-30T19:39:47.192Z,37.53
2023-01-30T19:42:16.781Z,36.77
2023-01-30T19:44:45.125Z,37.45
2023-01-30T19:47:14.096Z,36.38
2023-01-30T19:49:42.848Z,35.88
2023-01-30T19:52:11.307Z,36.58
2023-01-30T19:54:39.221Z,36.73
2023-01-30T19:57:08.022Z,36.05
2023-01-30T19:59:39.253Z,34.73
2023-01-30T20:02:24.444Z,35.40
2023-01-30T20:04:52.471Z,35.52
2023-01-30T20:07:23.808Z,35.35
2023-01-30T20:09:51.844Z,38.45
2023-01-30T20:12:19.220Z,35.83
2023-01-30T20:14:47.183Z,36.28
2023-01-30T20:17:15.289Z,37.65
2023-01-30T20:19:44.390Z,34.98
2023-01-30T20:22:13.816Z,35.95
2023-01-30T20:24:55.899Z,36.48
2023-01-30T20:27:24.057Z,37.58
2023-01-30T20:29:53.439Z,36.23
2023-01-30T20:32:21.263Z,36.68
2023-01-30T20:34:49.187Z,34.27
2023-01-30T20:37:17.408Z,35.43
2023-01-30T20:39:45.161Z,33.92
2023-01-30T20:42:13.012Z,36.38
2023-01-30T20:44:41.397Z,33.40
2023-01-30T20:47:10.287Z,36.53
2023-01-30T20:49:38.571Z,35.35
2023-01-30T20:52:19.881Z,36.40
2023-01-30T20:54:47.625Z,36.45
2023-01-30T20:57:16.572Z,35.23
2023-01-30T20:59:45.702Z,36.98
2023-01-30T21:02:13.653Z,36.42
2023-01-30T21:04:41.740Z,36.15
2023-01-30T21:07:10.376Z,36.75
2023-01-30T21:09:38.624Z,36.55
2023-01-30T21:14:59.423Z,39.25
2023-01-30T21:17:28.693Z,36.42
2023-01-30T21:19:56.469Z,37.20
2023-01-30T21:22:25.423Z,38.80
2023-01-30T21:25:00.943Z,36.33
2023-01-30T21:27:38.675Z,38.78
2023-01-30T21:30:06.611Z,36.88
2023-01-30T21:32:34.656Z,36.83
2023-01-30T21:35:22.092Z,36.00
2023-01-30T21:38:09.918Z,35.63
2023-01-30T21:41:00.517Z,36.23
2023-01-30T21:43:28.296Z,36.10
2023-01-30T21:45:59.904Z,37.95
2023-01-30T21:48:27.475Z,38.53
2023-01-30T21:50:55.321Z,37.25
2023-01-30T21:53:24.519Z,35.25
2023-01-30T21:55:54.139Z,36.50
2023-01-30T21:58:22.209Z,36.85
2023-01-30T22:00:50.543Z,36.00
2023-01-30T22:03:18.399Z,37.40
2023-01-30T22:05:46.195Z,35.40
2023-01-30T22:08:14.099Z,37.58
2023-01-30T22:11:12.971Z,37.25
2023-01-30T22:13:42.676Z,37.23
2023-01-30T22:16:14.248Z,36.98
2023-01-30T22:18:43.592Z,37.25
2023-01-30T22:21:16.795Z,37.25
2023-01-30T22:23:46.786Z,35.38
2023-01-30T22:26:17.477Z,36.95
2023-01-30T22:28:58.740Z,34.27
2023-01-30T22:31:30.151Z,35.58
2023-01-30T22:34:01.700Z,34.70
2023-01-30T22:36:32.682Z,35.83
2023-01-30T22:39:01.614Z,34.70
2023-01-30T22:41:41.419Z,36.42
2023-01-30T22:44:10.451Z,34.88
2023-01-30T22:46:40.404Z,35.65
2023-01-30T22:49:13.264Z,36.25
2023-01-30T22:51:43.593Z,37.10
2023-01-30T22:54:17.204Z,35.50
2023-01-30T22:56:46.763Z,37.28
2023-01-30T22:59:15.481Z,36.95
2023-01-30T23:01:46.423Z,36.03
2023-01-30T23:04:20.841Z,35.92
2023-01-30T23:09:29.672Z,36.68
2023-01-30T23:12:16.817Z,35.75
2023-01-30T23:14:45.278Z,36.03
2023-01-30T23:17:32.789Z,36.80
2023-01-30T23:20:02.177Z,35.92
2023-01-30T23:22:30.265Z,37.63
2023-01-30T23:24:58.040Z,36.03
2023-01-30T23:27:25.626Z,34.85
2023-01-30T23:29:53.852Z,33.88
2023-01-30T23:32:21.297Z,37.20
2023-01-30T23:34:49.990Z,35.33
2023-01-30T23:37:21.399Z,38.20
2023-01-30T23:39:50.174Z,35.85
2023-01-30T23:42:18.725Z,34.18
2023-01-30T23:44:46.492Z,33.95
2023-01-30T23:47:17.815Z,34.45
2023-01-30T23:49:45.680Z,33.02
2023-01-30T23:52:14.275Z,35.17
2023-01-30T23:54:42.547Z,35.58
2023-01-30T23:57:10.278Z,33.92
2023-01-30T23:59:37.931Z,34.67
